Time;durP1;ratioP1;P1;durP2;ratioP2;P2;SDS_P1;SDS_P2;PMS_P1;PMS_P2;Temp;Humidity;BMP_temperature;BMP_pressure;BME280_temperature;BME280_humidity;BME280_pressure;Samples;Min_cycle;Max_cycle;Signal;HPM_P1;HPM_P2
2022/07/20 00:00:41;;;;;;;7.47;2.50;;;;;;;;;;5023675;28;20181;-84
2022/07/20 00:03:46;;;;;;;4.73;2.00;;;;;;;;;;5023674;28;20540;-84
2022/07/20 00:06:50;;;;;;;2.83;2.10;;;;;;;;;;5023208;28;20524;-84
2022/07/20 00:13:17;;;;;;;3.90;2.20;;;;;;;;;;5023540;28;20177;-84
2022/07/20 00:16:22;;;;;;;5.40;2.43;;;;;;;;;;5011884;28;20205;-84
2022/07/20 00:19:26;;;;;;;4.17;1.80;;;;;;;;;;5021725;28;20181;-85
2022/07/20 00:22:31;;;;;;;2.50;2.00;;;;;;;;;;5021654;28;20181;-84
2022/07/20 00:25:35;;;;;;;4.30;2.33;;;;;;;;;;5021945;28;20177;-85
2022/07/20 00:28:39;;;;;;;5.63;2.27;;;;;;;;;;5010335;28;20216;-85
2022/07/20 00:31:43;;;;;;;4.20;2.30;;;;;;;;;;5033043;28;20181;-85
2022/07/20 00:34:47;;;;;;;5.30;2.20;;;;;;;;;;5021600;28;20632;-85
2022/07/20 00:37:51;;;;;;;4.33;2.00;;;;;;;;;;5021360;28;20560;-85
2022/07/20 00:40:55;;;;;;;4.70;2.37;;;;;;;;;;5012854;28;20181;-85
2022/07/20 00:44:06;;;;;;;5.77;2.10;;;;;;;;;;5025432;28;20212;-85
2022/07/20 00:47:10;;;;;;;4.83;2.07;;;;;;;;;;5025566;28;20632;-85
2022/07/20 00:50:14;;;;;;;6.73;2.20;;;;;;;;;;5014847;28;20185;-84
2022/07/20 00:53:18;;;;;;;3.80;2.10;;;;;;;;;;5003738;28;20173;-84
2022/07/20 00:56:24;;;;;;;6.67;2.43;;;;;;;;;;5026061;28;20185;-84
2022/07/20 00:59:28;;;;;;;5.57;1.97;;;;;;;;;;5026316;28;20181;-84
2022/07/20 01:02:32;;;;;;;7.40;2.10;;;;;;;;;;5003671;28;20512;-84
2022/07/20 01:05:36;;;;;;;3.73;1.97;;;;;;;;;;5025550;28;20173;-85
2022/07/20 01:08:40;;;;;;;3.40;1.80;;;;;;;;;;5025410;28;20223;-85
2022/07/20 01:11:44;;;;;;;4.70;2.70;;;;;;;;;;5025663;28;20204;-85
2022/07/20 01:14:54;;;;;;;5.47;2.07;;;;;;;;;;5014505;28;20200;-84
2022/07/20 01:17:58;;;;;;;4.37;2.00;;;;;;;;;;5025738;28;20217;-85
2022/07/20 01:21:04;;;;;;;4.60;2.30;;;;;;;;;;5014334;28;20181;-84
2022/07/20 01:24:12;;;;;;;3.37;1.77;;;;;;;;;;5026953;28;20204;-84
2022/07/20 01:27:16;;;;;;;5.10;2.17;;;;;;;;;;5016290;28;20173;-84
2022/07/20 01:30:20;;;;;;;3.10;1.90;;;;;;;;;;5028247;28;20517;-84
2022/07/20 01:33:24;;;;;;;3.83;1.97;;;;;;;;;;5028097;28;20536;-84
2022/07/20 01:36:29;;;;;;;6.77;2.20;;;;;;;;;;5038875;28;20201;-84
2022/07/20 01:39:33;;;;;;;4.33;2.00;;;;;;;;;;5004682;28;20204;-84
2022/07/20 01:42:37;;;;;;;4.77;2.00;;;;;;;;;;5016142;28;20176;-84
2022/07/20 01:45:41;;;;;;;5.53;2.23;;;;;;;;;;5016469;28;20655;-83
2022/07/20 01:48:45;;;;;;;3.43;2.00;;;;;;;;;;5026427;28;20216;-84
2022/07/20 01:51:51;;;;;;;4.10;1.90;;;;;;;;;;5026701;28;20196;-84
2022/07/20 01:54:55;;;;;;;3.27;1.93;;;;;;;;;;5026951;28;20197;-84
2022/07/20 01:58:00;;;;;;;4.13;2.07;;;;;;;;;;5026957;28;20216;-85
2022/07/20 02:01:04;;;;;;;4.37;2.10;;;;;;;;;;5027404;28;20180;-84
2022/07/20 02:04:07;;;;;;;5.53;1.97;;;;;;;;;;5015124;28;20212;-84
2022/07/20 02:07:11;;;;;;;7.30;2.40;;;;;;;;;;5026462;28;20189;-84
2022/07/20 02:10:16;;;;;;;4.73;2.17;;;;;;;;;;5026219;28;20505;-84
2022/07/20 02:13:20;;;;;;;4.83;2.17;;;;;;;;;;5014648;28;20200;-84
2022/07/20 02:16:24;;;;;;;4.07;2.30;;;;;;;;;;5003785;28;20192;-84
2022/07/20 02:19:28;;;;;;;4.87;2.33;;;;;;;;;;5026102;28;20200;-83
2022/07/20 02:22:32;;;;;;;3.43;2.10;;;;;;;;;;5025644;28;20181;-84
2022/07/20 02:25:38;;;;;;;3.17;1.70;;;;;;;;;;5026508;28;20181;-84
2022/07/20 02:28:41;;;;;;;5.97;2.10;;;;;;;;;;5026244;28;20217;-84
2022/07/20 02:31:46;;;;;;;6.17;2.23;;;;;;;;;;5015478;28;20181;-84
2022/07/20 02:34:50;;;;;;;4.50;2.00;;;;;;;;;;5025838;28;20616;-84
2022/07/20 02:37:54;;;;;;;6.90;2.33;;;;;;;;;;5014431;28;20216;-84
2022/07/20 02:40:58;;;;;;;4.63;2.00;;;;;;;;;;5025105;28;20652;-84
2022/07/20 02:44:03;;;;;;;5.93;1.80;;;;;;;;;;5014827;28;20224;-85
2022/07/20 02:47:07;;;;;;;4.53;2.17;;;;;;;;;;5003474;28;20197;-84
2022/07/20 02:50:12;;;;;;;2.60;1.87;;;;;;;;;;5014490;28;20196;-84
2022/07/20 02:53:16;;;;;;;3.37;2.17;;;;;;;;;;5014895;28;20624;-84
2022/07/20 02:56:20;;;;;;;3.03;2.00;;;;;;;;;;5037238;28;20173;-84
2022/07/20 02:59:24;;;;;;;2.47;1.70;;;;;;;;;;5025993;28;20177;-84
2022/07/20 03:02:28;;;;;;;4.37;2.30;;;;;;;;;;5002982;28;20624;-84
2022/07/20 03:05:33;;;;;;;2.77;2.00;;;;;;;;;;5002258;28;20208;-85
2022/07/20 03:08:38;;;;;;;6.47;2.27;;;;;;;;;;5067392;22;20574;-84
2022/07/20 03:11:42;;;;;;;3.40;2.50;;;;;;;;;;5011442;28;20177;-84
2022/07/20 03:14:46;;;;;;;5.90;2.17;;;;;;;;;;5034730;28;20177;-84
2022/07/20 03:17:53;;;;;;;3.90;2.00;;;;;;;;;;5022285;28;20212;-84
2022/07/20 03:20:58;;;;;;;5.60;2.00;;;;;;;;;;5022350;28;20184;-84
2022/07/20 03:24:02;;;;;;;5.50;1.90;;;;;;;;;;5022278;28;20204;-84
2022/07/20 03:27:07;;;;;;;4.10;2.13;;;;;;;;;;5021873;28;20200;-84
2022/07/20 03:30:12;;;;;;;7.93;2.20;;;;;;;;;;5022441;28;20200;-84
2022/07/20 03:33:16;;;;;;;6.37;2.37;;;;;;;;;;5022273;28;20185;-84
2022/07/20 03:36:20;;;;;;;4.30;2.37;;;;;;;;;;5022078;28;20180;-84
2022/07/20 03:39:24;;;;;;;4.23;1.90;;;;;;;;;;5022292;28;20220;-84
2022/07/20 03:42:28;;;;;;;4.33;2.30;;;;;;;;;;5022197;28;20176;-84
2022/07/20 03:45:32;;;;;;;6.40;2.50;;;;;;;;;;5022007;28;20208;-84
2022/07/20 03:48:37;;;;;;;8.13;2.60;;;;;;;;;;5033208;28;20213;-84
2022/07/20 03:51:41;;;;;;;9.70;2.50;;;;;;;;;;5022001;28;20508;-84
2022/07/20 03:54:46;;;;;;;6.37;2.30;;;;;;;;;;5021888;28;20177;-84
2022/07/20 03:57:50;;;;;;;7.33;2.40;;;;;;;;;;5032868;28;20216;-84
2022/07/20 04:00:55;;;;;;;6.67;2.20;;;;;;;;;;5033650;28;20173;-84
2022/07/20 04:03:59;;;;;;;4.27;2.13;;;;;;;;;;5021620;28;20528;-84
2022/07/20 04:07:03;;;;;;;3.57;2.10;;;;;;;;;;5044557;28;20181;-84
2022/07/20 04:10:08;;;;;;;5.37;2.30;;;;;;;;;;5021501;28;20661;-84
2022/07/20 04:13:12;;;;;;;2.93;2.13;;;;;;;;;;5021454;28;20177;-84
2022/07/20 04:16:16;;;;;;;4.43;2.07;;;;;;;;;;5024782;28;20181;-84
2022/07/20 04:19:21;;;;;;;4.00;2.10;;;;;;;;;;5025655;28;20216;-84
2022/07/20 04:22:25;;;;;;;5.33;2.33;;;;;;;;;;5039067;28;20185;-84
2022/07/20 04:25:29;;;;;;;3.00;2.10;;;;;;;;;;5039405;28;20208;-84
2022/07/20 04:28:33;;;;;;;5.13;2.73;;;;;;;;;;5028024;28;20216;-84
2022/07/20 04:31:37;;;;;;;4.20;2.10;;;;;;;;;;5040114;28;20627;-84
2022/07/20 04:34:41;;;;;;;5.67;1.93;;;;;;;;;;5044470;28;20173;-85
2022/07/20 04:37:46;;;;;;;3.67;2.20;;;;;;;;;;5046304;28;20551;-84
2022/07/20 04:40:50;;;;;;;2.83;2.17;;;;;;;;;;5046411;28;20177;-84
2022/07/20 04:43:54;;;;;;;8.60;2.27;;;;;;;;;;5033990;28;20181;-84
2022/07/20 04:46:59;;;;;;;4.03;2.07;;;;;;;;;;5032430;28;20516;-84
2022/07/20 04:50:03;;;;;;;3.00;2.03;;;;;;;;;;5031815;28;20184;-85
2022/07/20 04:53:07;;;;;;;5.33;2.70;;;;;;;;;;5053811;28;20180;-84
2022/07/20 04:56:12;;;;;;;2.90;2.10;;;;;;;;;;5041241;28;20177;-85
2022/07/20 04:59:17;;;;;;;4.23;2.43;;;;;;;;;;5051685;28;20209;-85
2022/07/20 05:02:21;;;;;;;3.80;2.13;;;;;;;;;;5039879;28;20503;-85
2022/07/20 05:05:25;;;;;;;4.63;2.13;;;;;;;;;;5027078;28;20547;-85
2022/07/20 05:08:29;;;;;;;3.37;2.07;;;;;;;;;;5027573;28;20220;-85
2022/07/20 05:11:34;;;;;;;3.00;2.00;;;;;;;;;;5026184;28;20189;-84
2022/07/20 05:14:38;;;;;;;5.80;2.30;;;;;;;;;;5026094;28;20169;-84
2022/07/20 05:17:42;;;;;;;8.37;2.67;;;;;;;;;;5026043;28;20216;-84
2022/07/20 05:20:46;;;;;;;4.33;2.57;;;;;;;;;;5037334;28;20185;-85
2022/07/20 05:23:50;;;;;;;4.90;2.43;;;;;;;;;;5036977;28;20176;-85
2022/07/20 05:26:54;;;;;;;5.33;2.83;;;;;;;;;;5036069;28;20177;-85
2022/07/20 05:29:59;;;;;;;6.03;2.93;;;;;;;;;;5027006;28;20635;-85
2022/07/20 05:33:03;;;;;;;6.57;2.87;;;;;;;;;;5037317;28;20181;-84
2022/07/20 05:36:08;;;;;;;4.43;2.47;;;;;;;;;;5048546;28;20177;-85
2022/07/20 05:39:12;;;;;;;4.20;2.40;;;;;;;;;;5025300;28;20221;-85
2022/07/20 05:42:16;;;;;;;2.57;2.20;;;;;;;;;;5025069;28;20180;-85
2022/07/20 05:45:20;;;;;;;4.83;2.07;;;;;;;;;;5036265;28;20224;-85
2022/07/20 05:48:25;;;;;;;8.73;2.87;;;;;;;;;;5024366;28;20555;-84
2022/07/20 05:51:29;;;;;;;5.47;2.70;;;;;;;;;;5024306;28;20177;-84
2022/07/20 05:54:33;;;;;;;8.07;2.73;;;;;;;;;;5024358;28;20520;-85
2022/07/20 05:57:38;;;;;;;5.37;2.60;;;;;;;;;;5024265;28;20185;-85
2022/07/20 06:00:42;;;;;;;6.80;2.60;;;;;;;;;;5035461;28;20544;-85
2022/07/20 06:03:46;;;;;;;4.47;2.40;;;;;;;;;;5035626;28;20627;-84
2022/07/20 06:06:50;;;;;;;16.53;3.30;;;;;;;;;;5024103;28;20200;-84
2022/07/20 06:09:54;;;;;;;6.70;2.40;;;;;;;;;;5024275;28;20181;-84
2022/07/20 06:13:00;;;;;;;7.33;2.53;;;;;;;;;;5023911;28;20521;-84
2022/07/20 06:16:04;;;;;;;6.03;2.20;;;;;;;;;;5023961;28;20536;-84
2022/07/20 06:19:08;;;;;;;8.07;2.87;;;;;;;;;;5023679;28;20213;-84
2022/07/20 06:22:12;;;;;;;3.33;2.40;;;;;;;;;;5035164;28;20200;-84
2022/07/20 06:25:18;;;;;;;3.40;2.73;;;;;;;;;;5023915;28;20564;-84
2022/07/20 06:28:22;;;;;;;4.87;2.43;;;;;;;;;;5024206;28;20698;-85
2022/07/20 06:31:26;;;;;;;4.20;2.90;;;;;;;;;;5034792;28;20662;-85
2022/07/20 06:34:31;;;;;;;4.90;2.70;;;;;;;;;;5023841;28;20185;-85
2022/07/20 06:37:36;;;;;;;3.00;2.30;;;;;;;;;;5034273;28;20181;-85
2022/07/20 06:40:40;;;;;;;5.13;2.70;;;;;;;;;;5023963;28;20631;-85
2022/07/20 06:43:44;;;;;;;8.77;2.70;;;;;;;;;;5023594;28;20181;-85
2022/07/20 06:46:49;;;;;;;5.93;2.90;;;;;;;;;;5034601;28;20220;-85
2022/07/20 06:49:53;;;;;;;4.20;2.50;;;;;;;;;;5023515;28;20181;-85
2022/07/20 06:52:57;;;;;;;4.27;2.47;;;;;;;;;;5023063;28;20181;-85
2022/07/20 06:56:01;;;;;;;3.47;2.70;;;;;;;;;;5023589;28;20655;-85
2022/07/20 06:59:05;;;;;;;8.77;3.03;;;;;;;;;;5023391;28;20212;-85
2022/07/20 07:02:09;;;;;;;9.80;2.90;;;;;;;;;;5012458;28;20185;-84
2022/07/20 07:05:14;;;;;;;6.60;2.70;;;;;;;;;;5023018;28;20204;-84
2022/07/20 07:08:18;;;;;;;8.00;3.37;;;;;;;;;;5033963;28;20226;-84
2022/07/20 07:11:23;;;;;;;4.43;3.00;;;;;;;;;;5033808;28;20181;-84
2022/07/20 07:14:27;;;;;;;4.87;3.13;;;;;;;;;;5022994;28;20180;-84
2022/07/20 07:17:31;;;;;;;5.27;2.93;;;;;;;;;;5033979;28;20176;-85
2022/07/20 07:20:35;;;;;;;7.57;2.93;;;;;;;;;;5045466;28;20518;-85
2022/07/20 07:23:39;;;;;;;6.67;3.10;;;;;;;;;;5022359;28;20187;-85
2022/07/20 07:26:44;;;;;;;6.60;3.07;;;;;;;;;;5022438;28;20213;-85
2022/07/20 07:29:48;;;;;;;6.00;3.00;;;;;;;;;;5022471;28;20185;-85
2022/07/20 07:32:52;;;;;;;6.03;3.00;;;;;;;;;;5033468;28;20180;-85
2022/07/20 07:35:56;;;;;;;6.13;3.15;;;;;;;;;;5022366;28;20176;-85
2022/07/20 07:39:01;;;;;;;10.20;3.20;;;;;;;;;;5022362;28;20216;-85
2022/07/20 07:42:05;;;;;;;8.65;3.67;;;;;;;;;;5033360;28;20187;-85
2022/07/20 07:45:09;;;;;;;4.95;2.88;;;;;;;;;;5022028;28;20212;-85
2022/07/20 07:48:13;;;;;;;5.43;3.10;;;;;;;;;;5033231;28;20683;-85
2022/07/20 07:51:18;;;;;;;4.80;3.20;;;;;;;;;;5033466;28;20175;-85
2022/07/20 07:54:22;;;;;;;5.03;2.80;;;;;;;;;;5022091;28;20184;-85
2022/07/20 07:57:27;;;;;;;7.50;3.33;;;;;;;;;;5033149;28;20181;-85
2022/07/20 08:00:31;;;;;;;3.42;2.88;;;;;;;;;;5022212;28;20180;-85
2022/07/20 08:03:35;;;;;;;5.72;3.28;;;;;;;;;;5022445;28;20538;-85
2022/07/20 08:06:39;;;;;;;6.20;2.90;;;;;;;;;;5033301;28;20221;-85
2022/07/20 08:09:43;;;;;;;3.72;3.15;;;;;;;;;;5044977;28;20219;-85
2022/07/20 08:12:49;;;;;;;6.00;3.22;;;;;;;;;;5021885;28;20177;-85
2022/07/20 08:15:53;;;;;;;4.38;2.72;;;;;;;;;;5022182;28;20177;-85
2022/07/20 08:18:57;;;;;;;6.43;3.13;;;;;;;;;;5022591;28;20217;-85
2022/07/20 08:22:01;;;;;;;9.75;3.65;;;;;;;;;;5033471;28;20521;-85
2022/07/20 08:25:05;;;;;;;8.32;3.22;;;;;;;;;;5044330;28;20205;-85
2022/07/20 08:28:20;;;;;;;7.10;3.20;;;;;;;;;;5021512;28;20212;-85
2022/07/20 08:31:24;;;;;;;5.30;3.20;;;;;;;;;;5021921;28;20181;-86
2022/07/20 08:34:28;;;;;;;5.25;3.50;;;;;;;;;;5021363;28;20197;-86
2022/07/20 08:37:32;;;;;;;4.50;3.38;;;;;;;;;;5032735;28;20173;-86
2022/07/20 08:40:38;;;;;;;8.95;3.92;;;;;;;;;;5032960;28;20181;-85
2022/07/20 08:43:42;;;;;;;7.10;3.70;;;;;;;;;;5021229;28;20178;-85
2022/07/20 08:46:47;;;;;;;5.28;3.38;;;;;;;;;;5021206;28;20217;-85
2022/07/20 08:49:50;;;;;;;5.07;3.53;;;;;;;;;;5021229;28;20542;-86
2022/07/20 08:52:56;;;;;;;5.60;2.97;;;;;;;;;;5020973;28;20181;-86
2022/07/20 08:56:00;;;;;;;6.35;3.60;;;;;;;;;;5033186;28;20177;-86
2022/07/20 08:59:05;;;;;;;5.03;3.20;;;;;;;;;;5021269;28;20244;-86
2022/07/20 09:02:09;;;;;;;9.43;3.80;;;;;;;;;;5023728;28;20181;-86
2022/07/20 09:05:13;;;;;;;7.57;3.42;;;;;;;;;;5036125;28;20185;-86
2022/07/20 09:08:17;;;;;;;4.15;3.40;;;;;;;;;;5053401;22;20647;-85
2022/07/20 09:11:24;;;;;;;5.75;3.30;;;;;;;;;;5044067;28;20199;-86
2022/07/20 09:14:47;;;;;;;9.88;3.47;;;;;;;;;;5044348;28;20184;-86
2022/07/20 09:18:09;;;;;;;4.60;3.20;;;;;;;;;;5021500;28;20177;-86
2022/07/20 09:21:13;;;;;;;4.38;3.17;;;;;;;;;;5043777;28;20181;-86
2022/07/20 09:24:19;;;;;;;3.80;3.30;;;;;;;;;;5033086;28;20173;-85
2022/07/20 09:27:32;;;;;;;6.40;3.20;;;;;;;;;;5032444;28;20663;-84
2022/07/20 09:30:36;;;;;;;4.97;3.47;;;;;;;;;;5032569;28;20188;-84
2022/07/20 09:33:48;;;;;;;4.68;3.58;;;;;;;;;;5032765;28;20524;-85
2022/07/20 09:36:52;;;;;;;4.63;3.55;;;;;;;;;;5043652;28;20527;-86
2022/07/20 09:40:00;;;;;;;6.57;3.95;;;;;;;;;;5043698;28;20223;-86
2022/07/20 09:43:04;;;;;;;6.85;3.42;;;;;;;;;;5043416;28;20176;-86
2022/07/20 09:46:21;;;;;;;6.25;3.53;;;;;;;;;;5055073;28;20201;-84
2022/07/20 09:49:34;;;;;;;5.47;3.75;;;;;;;;;;5032045;28;20212;-84
2022/07/20 09:52:38;;;;;;;4.55;3.42;;;;;;;;;;5043360;28;20180;-84
2022/07/20 09:55:43;;;;;;;6.40;3.45;;;;;;;;;;5032113;28;20512;-84
2022/07/20 09:58:50;;;;;;;4.90;3.33;;;;;;;;;;5031743;28;20220;-84
2022/07/20 10:01:55;;;;;;;4.63;3.38;;;;;;;;;;5032033;28;20624;-83
2022/07/20 10:04:59;;;;;;;6.35;3.70;;;;;;;;;;5032321;28;20180;-84
2022/07/20 10:08:06;;;;;;;6.70;3.35;;;;;;;;;;5031542;28;20184;-84
2022/07/20 10:11:11;;;;;;;6.70;3.28;;;;;;;;;;5043190;28;20639;-84
2022/07/20 10:14:21;;;;;;;4.72;3.22;;;;;;;;;;5033021;28;20196;-84
2022/07/20 10:17:25;;;;;;;6.55;3.45;;;;;;;;;;5055511;28;20506;-84
2022/07/20 10:20:32;;;;;;;4.45;3.30;;;;;;;;;;5031557;28;20184;-84
2022/07/20 10:23:36;;;;;;;8.75;3.50;;;;;;;;;;5031659;28;20172;-84
2022/07/20 10:26:41;;;;;;;5.80;3.20;;;;;;;;;;5042985;28;20211;-84
2022/07/20 10:29:48;;;;;;;5.00;3.95;;;;;;;;;;5031227;28;20216;-84
2022/07/20 10:32:56;;;;;;;3.85;3.53;;;;;;;;;;5031289;28;20175;-84
2022/07/20 10:39:45;;;;;;;5.05;3.60;;;;;;;;;;5031063;28;20207;-84
2022/07/20 10:43:14;;;;;;;5.18;3.45;;;;;;;;;;5030983;28;20188;-84
2022/07/20 10:46:33;;;;;;;6.55;3.38;;;;;;;;;;5054691;28;20203;-84
2022/07/20 10:50:03;;;;;;;7.47;3.88;;;;;;;;;;5042296;28;20569;-84
2022/07/20 10:53:10;;;;;;;3.53;3.15;;;;;;;;;;5030935;28;20176;-84
2022/07/20 10:56:14;;;;;;;5.43;3.28;;;;;;;;;;5030984;28;20627;-84
2022/07/20 10:59:19;;;;;;;7.43;3.35;;;;;;;;;;5042378;28;20219;-84
2022/07/20 11:02:23;;;;;;;4.18;3.13;;;;;;;;;;5042241;28;20184;-84
2022/07/20 11:05:27;;;;;;;4.82;3.40;;;;;;;;;;5030543;28;20199;-84
2022/07/20 11:08:31;;;;;;;7.85;3.47;;;;;;;;;;5041811;28;20207;-84
2022/07/20 11:11:36;;;;;;;5.63;3.50;;;;;;;;;;5030530;28;20210;-84
2022/07/20 11:14:51;;;;;;;6.90;3.33;;;;;;;;;;5019224;28;20195;-84
2022/07/20 11:17:55;;;;;;;6.93;3.42;;;;;;;;;;5030406;28;20607;-84
2022/07/20 11:21:03;;;;;;;5.85;3.38;;;;;;;;;;5030358;28;20180;-85
2022/07/20 11:24:20;;;;;;;8.40;3.50;;;;;;;;;;5018780;28;20176;-85
2022/07/20 11:27:25;;;;;;;7.25;3.50;;;;;;;;;;5030222;28;20203;-85
2022/07/20 11:30:34;;;;;;;8.32;3.58;;;;;;;;;;5030806;28;20180;-85
2022/07/20 11:33:39;;;;;;;3.47;3.10;;;;;;;;;;5041953;28;20171;-84
2022/07/20 11:36:43;;;;;;;4.53;3.35;;;;;;;;;;5030056;28;20627;-84
2022/07/20 11:39:48;;;;;;;6.10;3.67;;;;;;;;;;5029914;28;20215;-84
2022/07/20 11:43:10;;;;;;;5.35;3.28;;;;;;;;;;5018800;28;20179;-84
2022/07/20 11:46:22;;;;;;;4.57;3.28;;;;;;;;;;5030205;28;20180;-84
2022/07/20 11:49:27;;;;;;;8.20;3.28;;;;;;;;;;5041354;28;20224;-84
2022/07/20 11:52:42;;;;;;;5.13;3.28;;;;;;;;;;5041342;28;20180;-84
2022/07/20 11:55:46;;;;;;;6.40;3.30;;;;;;;;;;5041353;28;20196;-84
2022/07/20 11:58:52;;;;;;;8.13;3.67;;;;;;;;;;5029984;28;20215;-84
2022/07/20 12:01:59;;;;;;;7.90;3.72;;;;;;;;;;5030461;28;20180;-84
2022/07/20 12:05:04;;;;;;;6.75;3.60;;;;;;;;;;5041211;28;20172;-84
2022/07/20 12:08:15;;;;;;;5.85;3.25;;;;;;;;;;5030016;28;20227;-84
2022/07/20 12:11:19;;;;;;;4.75;3.28;;;;;;;;;;5041238;28;20188;-85
2022/07/20 12:14:37;;;;;;;6.93;3.40;;;;;;;;;;5029795;28;20662;-84
2022/07/20 12:17:52;;;;;;;4.22;3.40;;;;;;;;;;5029764;28;20185;-84
2022/07/20 12:20:58;;;;;;;6.90;3.13;;;;;;;;;;5041113;28;20527;-84
2022/07/20 12:24:04;;;;;;;5.53;3.58;;;;;;;;;;5042464;28;20183;-84
2022/07/20 12:27:08;;;;;;;5.18;3.28;;;;;;;;;;5040983;28;20203;-84
2022/07/20 12:30:23;;;;;;;7.15;3.17;;;;;;;;;;5029890;28;20203;-84
2022/07/20 12:33:28;;;;;;;5.15;3.15;;;;;;;;;;5041069;28;20184;-84
2022/07/20 12:36:39;;;;;;;9.13;3.42;;;;;;;;;;5031045;28;20195;-84
2022/07/20 12:39:53;;;;;;;3.58;3.00;;;;;;;;;;5033307;28;20638;-84
2022/07/20 12:42:57;;;;;;;4.28;3.35;;;;;;;;;;5033324;28;20180;-84
2022/07/20 12:46:07;;;;;;;4.93;3.40;;;;;;;;;;5044442;28;20204;-84
2022/07/20 12:49:19;;;;;;;6.43;3.00;;;;;;;;;;5044616;28;20211;-85
2022/07/20 12:52:23;;;;;;;4.55;3.20;;;;;;;;;;5044699;28;20180;-85
2022/07/20 12:55:27;;;;;;;7.22;3.30;;;;;;;;;;5033327;28;20176;-85
2022/07/20 12:58:31;;;;;;;9.32;3.45;;;;;;;;;;5044179;28;20215;-85
2022/07/20 13:01:35;;;;;;;4.80;2.70;;;;;;;;;;5033284;28;20184;-84
2022/07/20 13:04:39;;;;;;;6.15;2.70;;;;;;;;;;5032898;28;20195;-84
2022/07/20 13:07:46;;;;;;;3.83;2.85;;;;;;;;;;5032959;28;20219;-84
2022/07/20 13:10:50;;;;;;;5.38;3.00;;;;;;;;;;5044130;28;20176;-84
2022/07/20 13:13:54;;;;;;;4.20;2.63;;;;;;;;;;5044233;28;20176;-85
2022/07/20 13:16:59;;;;;;;5.95;3.00;;;;;;;;;;5021637;28;20179;-85
2022/07/20 13:20:04;;;;;;;4.40;2.72;;;;;;;;;;5032552;28;20219;-85
2022/07/20 13:23:08;;;;;;;4.53;2.70;;;;;;;;;;5044152;28;20522;-84
2022/07/20 13:26:13;;;;;;;8.10;2.90;;;;;;;;;;5044492;28;20179;-85
2022/07/20 13:29:17;;;;;;;4.35;3.17;;;;;;;;;;5032948;28;20207;-85
2022/07/20 13:32:21;;;;;;;5.53;2.92;;;;;;;;;;5032603;28;20184;-85
2022/07/20 13:35:25;;;;;;;5.43;3.25;;;;;;;;;;5055010;28;20199;-84
2022/07/20 13:38:29;;;;;;;5.80;2.83;;;;;;;;;;5032097;28;20219;-84
2022/07/20 13:41:33;;;;;;;8.85;3.15;;;;;;;;;;5032350;28;20176;-84
2022/07/20 13:44:38;;;;;;;6.22;3.05;;;;;;;;;;5032266;28;20175;-84
2022/07/20 13:47:42;;;;;;;6.22;3.03;;;;;;;;;;5031842;28;20204;-84
2022/07/20 13:50:48;;;;;;;10.23;3.20;;;;;;;;;;5032152;28;20638;-84
2022/07/20 13:53:52;;;;;;;3.97;3.00;;;;;;;;;;5032461;28;20180;-84
2022/07/20 13:56:56;;;;;;;6.05;2.95;;;;;;;;;;5031987;28;20184;-85
2022/07/20 14:00:00;;;;;;;7.30;2.60;;;;;;;;;;5032336;28;20211;-85
2022/07/20 14:03:05;;;;;;;2.92;2.47;;;;;;;;;;5031761;28;20523;-85
2022/07/20 14:06:09;;;;;;;6.30;2.50;;;;;;;;;;5031914;28;20200;-85
2022/07/20 14:09:13;;;;;;;3.33;2.67;;;;;;;;;;5031573;28;20220;-85
2022/07/20 14:12:17;;;;;;;6.07;2.80;;;;;;;;;;5031754;28;20209;-85
2022/07/20 14:15:21;;;;;;;6.53;2.35;;;;;;;;;;5031848;28;20187;-85
2022/07/20 14:18:26;;;;;;;6.80;2.38;;;;;;;;;;5031726;28;20233;-85
2022/07/20 14:21:30;;;;;;;4.10;2.10;;;;;;;;;;5031347;28;20516;-85
2022/07/20 14:24:35;;;;;;;4.38;2.22;;;;;;;;;;5031460;28;20532;-85
2022/07/20 14:27:39;;;;;;;4.05;2.30;;;;;;;;;;5031291;28;20663;-85
2022/07/20 14:30:43;;;;;;;3.92;2.55;;;;;;;;;;5042686;28;20180;-85
2022/07/20 14:33:47;;;;;;;6.32;2.65;;;;;;;;;;5042420;28;20199;-85
2022/07/20 14:36:51;;;;;;;5.95;2.40;;;;;;;;;;5042542;28;20203;-85
2022/07/20 14:39:55;;;;;;;3.63;2.50;;;;;;;;;;5031564;28;20212;-85
2022/07/20 14:42:59;;;;;;;5.13;2.65;;;;;;;;;;5042394;28;20184;-85
2022/07/20 14:46:04;;;;;;;4.05;2.70;;;;;;;;;;5031124;28;20176;-85
2022/07/20 14:49:08;;;;;;;6.13;2.90;;;;;;;;;;5042198;28;20219;-85
2022/07/20 14:52:12;;;;;;;5.72;2.50;;;;;;;;;;5054493;28;20180;-85
2022/07/20 14:55:17;;;;;;;6.32;2.80;;;;;;;;;;5042654;28;20519;-85
2022/07/20 14:58:21;;;;;;;7.53;2.60;;;;;;;;;;5030211;28;20555;-85
2022/07/20 15:01:25;;;;;;;3.17;2.40;;;;;;;;;;5042241;28;20183;-85
2022/07/20 15:04:29;;;;;;;7.82;2.63;;;;;;;;;;5031492;28;20627;-84
2022/07/20 15:07:34;;;;;;;6.40;2.53;;;;;;;;;;5043128;28;20203;-85
2022/07/20 15:10:41;;;;;;;3.13;2.30;;;;;;;;;;5058400;22;20235;-85
2022/07/20 15:13:46;;;;;;;5.60;2.80;;;;;;;;;;4999749;28;20192;-85
2022/07/20 15:16:50;;;;;;;6.05;2.40;;;;;;;;;;4999959;28;20196;-85
2022/07/20 15:19:54;;;;;;;4.15;2.17;;;;;;;;;;5016976;28;20213;-85
2022/07/20 15:22:58;;;;;;;3.35;2.70;;;;;;;;;;5013870;28;20180;-85
2022/07/20 15:26:03;;;;;;;3.22;2.47;;;;;;;;;;5013586;28;20173;-85
2022/07/20 15:29:06;;;;;;;6.38;2.50;;;;;;;;;;5002077;28;20228;-85
2022/07/20 15:32:10;;;;;;;8.93;2.75;;;;;;;;;;5013357;28;20197;-85
2022/07/20 15:35:15;;;;;;;3.83;2.10;;;;;;;;;;5001774;28;20196;-85
2022/07/20 15:38:20;;;;;;;7.32;2.40;;;;;;;;;;5002116;28;20201;-84
2022/07/20 15:41:24;;;;;;;3.30;2.22;;;;;;;;;;5013010;28;20201;-85
2022/07/20 15:44:28;;;;;;;4.72;2.60;;;;;;;;;;5013184;28;20181;-85
2022/07/20 15:47:32;;;;;;;4.13;2.50;;;;;;;;;;5013222;28;20521;-85
2022/07/20 15:50:36;;;;;;;5.85;2.72;;;;;;;;;;5013176;28;20552;-84
2022/07/20 15:53:40;;;;;;;5.15;2.60;;;;;;;;;;5013357;28;20519;-84
2022/07/20 16:00:10;;;;;;;4.90;2.60;;;;;;;;;;5013320;28;20555;-84
2022/07/20 16:03:14;;;;;;;4.25;2.20;;;;;;;;;;5013439;28;20182;-84
2022/07/20 16:06:18;;;;;;;4.03;2.42;;;;;;;;;;5013353;28;20178;-84
2022/07/20 16:09:22;;;;;;;5.85;2.20;;;;;;;;;;5012714;28;20698;-84
2022/07/20 16:12:28;;;;;;;2.65;2.03;;;;;;;;;;5016950;28;20178;-84
2022/07/20 16:15:33;;;;;;;5.95;2.20;;;;;;;;;;5017059;28;20178;-84
2022/07/20 16:18:37;;;;;;;4.88;2.15;;;;;;;;;;5016807;28;20182;-84
2022/07/20 16:21:41;;;;;;;2.67;2.05;;;;;;;;;;5005408;28;20193;-84
2022/07/20 16:24:46;;;;;;;3.47;2.10;;;;;;;;;;5016968;28;20197;-84
2022/07/20 16:27:50;;;;;;;4.22;2.17;;;;;;;;;;5016476;28;20229;-84
2022/07/20 16:30:55;;;;;;;5.40;2.40;;;;;;;;;;5028185;28;20659;-84
2022/07/20 16:34:00;;;;;;;5.22;2.33;;;;;;;;;;5016681;28;20197;-84
2022/07/20 16:37:04;;;;;;;4.57;2.20;;;;;;;;;;5005098;28;20561;-84
2022/07/20 16:40:09;;;;;;;2.90;2.15;;;;;;;;;;5016436;28;20213;-85
2022/07/20 16:43:13;;;;;;;7.80;2.15;;;;;;;;;;5016216;28;20186;-84
2022/07/20 16:46:17;;;;;;;3.10;1.85;;;;;;;;;;5016381;28;20174;-84
2022/07/20 16:49:21;;;;;;;2.75;1.98;;;;;;;;;;5017040;28;20296;-84
2022/07/20 16:52:25;;;;;;;5.43;2.05;;;;;;;;;;5027876;28;20174;-84
2022/07/20 16:55:29;;;;;;;4.65;2.00;;;;;;;;;;5016617;28;20514;-84
2022/07/20 16:58:34;;;;;;;4.25;1.88;;;;;;;;;;5016045;28;20182;-85
2022/07/20 17:01:37;;;;;;;5.50;2.00;;;;;;;;;;5016338;28;20636;-84
2022/07/20 17:04:42;;;;;;;4.38;1.98;;;;;;;;;;5004903;28;20631;-84
2022/07/20 17:07:47;;;;;;;3.38;2.00;;;;;;;;;;5016397;28;20181;-84
2022/07/20 17:10:53;;;;;;;3.40;1.70;;;;;;;;;;5015731;28;20197;-84
2022/07/20 17:13:58;;;;;;;3.88;2.10;;;;;;;;;;5016003;28;20628;-84
2022/07/20 17:17:03;;;;;;;3.45;1.80;;;;;;;;;;5015992;28;20182;-84
2022/07/20 17:20:08;;;;;;;6.03;1.98;;;;;;;;;;5004542;28;20210;-84
2022/07/20 17:23:12;;;;;;;3.40;1.83;;;;;;;;;;5015077;28;20186;-84
2022/07/20 17:26:16;;;;;;;9.20;2.20;;;;;;;;;;5015789;28;20174;-84
2022/07/20 17:29:20;;;;;;;18.20;2.90;;;;;;;;;;5015471;28;20229;-84
2022/07/20 17:32:24;;;;;;;7.88;2.28;;;;;;;;;;5015964;28;20182;-84
2022/07/20 17:35:28;;;;;;;5.95;1.92;;;;;;;;;;5015432;28;20186;-84
2022/07/20 17:38:32;;;;;;;7.28;2.10;;;;;;;;;;5015478;28;20534;-84
2022/07/20 17:41:38;;;;;;;5.38;2.03;;;;;;;;;;4993095;28;20527;-85
2022/07/20 17:44:42;;;;;;;7.10;2.10;;;;;;;;;;5015569;28;20632;-84
2022/07/20 17:47:46;;;;;;;6.03;1.88;;;;;;;;;;5026377;28;20173;-85
2022/07/20 17:50:50;;;;;;;5.25;2.17;;;;;;;;;;5026506;28;20213;-85
2022/07/20 17:53:54;;;;;;;16.25;4.07;;;;;;;;;;5003994;28;20186;-85
2022/07/20 17:56:58;;;;;;;11.70;3.58;;;;;;;;;;5015097;28;20174;-85
2022/07/20 18:00:04;;;;;;;9.18;2.85;;;;;;;;;;5014871;28;20213;-85
2022/07/20 18:03:11;;;;;;;14.35;3.88;;;;;;;;;;5015145;28;20178;-85
2022/07/20 18:06:15;;;;;;;8.52;3.67;;;;;;;;;;5014982;28;20650;-85
2022/07/20 18:09:20;;;;;;;11.27;3.70;;;;;;;;;;5014322;28;20230;-85
2022/07/20 18:12:23;;;;;;;16.13;4.03;;;;;;;;;;5003412;28;20529;-86
2022/07/20 18:15:28;;;;;;;11.00;3.80;;;;;;;;;;5014899;28;20181;-85
2022/07/20 18:18:32;;;;;;;11.07;3.75;;;;;;;;;;5003621;28;20548;-86
2022/07/20 18:21:36;;;;;;;10.43;3.42;;;;;;;;;;5003478;28;20181;-85
2022/07/20 18:24:40;;;;;;;14.20;3.13;;;;;;;;;;5003796;28;20186;-85
2022/07/20 18:27:44;;;;;;;5.30;3.10;;;;;;;;;;5014423;28;20192;-86
2022/07/20 18:30:48;;;;;;;10.70;3.00;;;;;;;;;;4992077;28;20219;-86
2022/07/20 18:33:53;;;;;;;8.48;3.45;;;;;;;;;;5013530;28;20188;-86
2022/07/20 18:36:58;;;;;;;13.30;3.45;;;;;;;;;;5014027;28;20195;-86
2022/07/20 18:40:04;;;;;;;9.40;3.20;;;;;;;;;;5014139;28;20215;-86